Time;durP1;ratioP1;P1;durP2;ratioP2;P2;SDS_P1;SDS_P2;PMS_P1;PMS_P2;Temp;Humidity;BMP_temperature;BMP_pressure;BME280_temperature;BME280_humidity;BME280_pressure;Samples;Min_cycle;Max_cycle;Signal;HPM_P1;HPM_P2
2021/09/30 00:01:22;;;;;;;4.07;1.30;;;;;8.80;102027.00;;;;10433730;28;20198;-79
2021/09/30 00:06:24;;;;;;;7.43;1.70;;;;;8.80;102030.00;;;;10431365;28;20640;-80
2021/09/30 00:11:29;;;;;;;7.07;1.93;;;;;8.80;102037.00;;;;10447807;28;20557;-80
2021/09/30 00:17:03;;;;;;;3.43;1.60;;;;;8.80;102040.00;;;;10465194;28;20194;-79
2021/09/30 01:57:46;;;;;;;7.20;1.80;;;;;9.50;102063.00;;;;10463442;28;20198;-81
2021/09/30 01:58:47;;;;;;;5.13;1.63;;;;;9.50;102054.00;;;;10508583;28;20221;-80
2021/09/30 02:20:24;;;;;;;5.37;2.00;;;;;8.80;102032.00;;;;10429886;28;20256;-81
2021/09/30 02:58:28;;;;;;;5.37;1.90;;;;;8.00;102012.00;;;;10443112;28;20182;-80
2021/09/30 03:03:34;;;;;;;5.63;2.20;;;;;7.90;102014.00;;;;10470327;28;20189;-81
2021/09/30 03:08:42;;;;;;;4.93;2.40;;;;;7.90;102022.00;;;;10470691;28;20209;-81
2021/09/30 03:13:47;;;;;;;6.73;2.20;;;;;7.90;102021.00;;;;10486376;28;20235;-81
2021/09/30 03:18:54;;;;;;;3.67;1.77;;;;;7.80;102028.00;;;;10469265;28;20190;-81
2021/09/30 03:23:59;;;;;;;9.03;2.13;;;;;7.70;102019.00;;;;10469417;28;20181;-80
2021/09/30 03:29:02;;;;;;;7.13;2.50;;;;;7.70;102021.00;;;;10487850;28;20210;-81
2021/09/30 03:34:05;;;;;;;5.33;2.00;;;;;7.70;102019.00;;;;10409994;28;20190;-81
2021/09/30 03:39:12;;;;;;;10.43;3.17;;;;;7.60;102023.00;;;;10468036;28;20245;-80
2021/09/30 03:44:14;;;;;;;7.57;2.40;;;;;7.60;102018.00;;;;10444102;28;20213;-80
2021/09/30 03:49:30;;;;;;;5.37;2.10;;;;;7.50;102020.00;;;;10416670;28;20222;-80
2021/09/30 03:59:43;;;;;;;6.17;2.13;;;;;7.40;102032.00;;;;10477798;28;20657;-81
2021/09/30 04:04:54;;;;;;;7.47;2.10;;;;;7.30;102034.00;;;;10386015;28;20198;-80
2021/09/30 04:09:56;;;;;;;10.03;1.83;;;;;7.30;102037.00;;;;10409720;28;20214;-80
2021/09/30 04:14:58;;;;;;;6.40;2.17;;;;;7.30;102037.00;;;;10442245;28;20715;-80
2021/09/30 04:20:00;;;;;;;9.23;2.30;;;;;7.30;102045.00;;;;10425607;28;20187;-80
2021/09/30 04:25:04;;;;;;;7.83;2.63;;;;;7.30;102056.00;;;;10426289;28;20225;-81
2021/09/30 04:30:06;;;;;;;6.40;2.43;;;;;7.20;102058.00;;;;10438233;28;20214;-80
2021/09/30 04:35:23;;;;;;;8.63;3.43;;;;;7.20;102064.00;;;;10449102;28;20190;-81
2021/09/30 04:40:25;;;;;;;9.27;2.27;;;;;7.10;102058.00;;;;10450411;28;20209;-81
2021/09/30 04:45:27;;;;;;;9.80;2.33;;;;;7.10;102067.00;;;;10467343;28;20243;-81
2021/09/30 04:50:37;;;;;;;6.23;1.93;;;;;7.10;102066.00;;;;10433260;28;20321;-81
2021/09/30 04:55:39;;;;;;;5.00;2.27;;;;;7.10;102060.00;;;;10450857;28;20194;-81
2021/09/30 05:00:41;;;;;;;9.53;2.10;;;;;7.10;102071.00;;;;10450736;28;20189;-80
2021/09/30 05:05:50;;;;;;;8.40;2.50;;;;;7.20;102078.00;;;;10449917;28;20198;-81
2021/09/30 05:10:52;;;;;;;4.20;1.77;;;;;7.30;102085.00;;;;10435297;28;20286;-81
2021/09/30 05:15:55;;;;;;;11.43;2.20;;;;;7.40;102091.00;;;;10434585;28;20548;-81
2021/09/30 05:21:17;;;;;;;8.83;3.47;;;;;7.60;102100.00;;;;10448477;28;20186;-81
2021/09/30 05:26:19;;;;;;;9.53;2.43;;;;;7.70;102106.00;;;;10434724;28;20732;-81
2021/09/30 05:31:21;;;;;;;6.50;2.10;;;;;7.80;102112.00;;;;10487215;28;20229;-82
2021/09/30 05:36:47;;;;;;;8.10;2.37;;;;;7.90;102114.00;;;;10406921;28;20199;-81
2021/09/30 05:41:50;;;;;;;9.00;1.80;;;;;8.00;102114.00;;;;10480365;28;20218;-81
2021/09/30 05:46:55;;;;;;;8.33;2.23;;;;;8.00;102109.00;;;;10435002;28;20590;-82
2021/09/30 05:51:58;;;;;;;13.90;2.07;;;;;8.10;102116.00;;;;10424865;28;20311;-81
2021/09/30 05:57:12;;;;;;;3.93;2.00;;;;;8.10;102096.00;;;;10450106;28;20280;-81
2021/09/30 06:12:35;;;;;;;6.77;2.17;;;;;8.40;102095.00;;;;10482053;28;20210;-81
2021/09/30 06:17:38;;;;;;;8.20;1.90;;;;;8.50;102106.00;;;;10448095;28;20247;-81
2021/09/30 06:22:41;;;;;;;13.43;2.53;;;;;8.60;102108.00;;;;10448883;28;20186;-81
2021/09/30 06:27:43;;;;;;;8.73;2.10;;;;;8.70;102109.00;;;;10455557;28;20641;-81
2021/09/30 06:32:47;;;;;;;11.23;2.30;;;;;8.80;102108.00;;;;10432079;28;20232;-81
2021/09/30 06:38:12;;;;;;;6.87;2.50;;;;;9.10;102114.00;;;;10478139;28;20190;-81
2021/09/30 06:43:14;;;;;;;4.77;1.73;;;;;9.40;102115.00;;;;10407638;28;20330;-81
2021/09/30 06:48:35;;;;;;;12.17;2.70;;;;;9.90;102135.00;;;;10421463;28;20256;-81
2021/09/30 06:53:45;;;;;;;11.07;2.87;;;;;10.40;102128.00;;;;10406558;28;20202;-81
2021/09/30 06:58:47;;;;;;;8.83;2.43;;;;;10.60;102152.00;;;;10474629;28;20243;-81
2021/09/30 07:04:21;;;;;;;5.33;2.00;;;;;10.60;102152.00;;;;10439825;28;20190;-80
2021/09/30 07:09:39;;;;;;;5.03;1.87;;;;;10.60;102171.00;;;;10465985;28;20197;-81
2021/09/30 07:14:42;;;;;;;5.80;2.27;;;;;10.70;102174.00;;;;10464451;28;20194;-81
2021/09/30 07:19:44;;;;;;;11.47;1.90;;;;;10.70;102178.00;;;;10428915;28;20225;-81
2021/09/30 07:24:46;;;;;;;9.23;2.03;;;;;10.60;102170.00;;;;10469882;28;20197;-80
2021/09/30 07:29:48;;;;;;;6.47;2.20;;;;;10.60;102171.00;;;;10461074;28;20210;-81
2021/09/30 07:34:51;;;;;;;8.37;2.03;;;;;10.70;102174.00;;;;10421246;28;20198;-81
2021/09/30 07:39:53;;;;;;;5.23;2.40;;;;;11.20;102184.00;;;;10464252;28;20210;-81
2021/09/30 07:44:55;;;;;;;7.00;1.83;;;;;11.50;102185.00;;;;10429261;28;20249;-81
2021/09/30 07:49:56;;;;;;;8.43;2.07;;;;;12.20;102185.00;;;;10445076;28;20269;-80
2021/09/30 07:55:00;;;;;;;9.37;2.17;;;;;12.80;102184.00;;;;10426335;28;20207;-80
2021/09/30 08:00:07;;;;;;;8.97;2.60;;;;;13.00;102191.00;;;;10429984;28;20569;-81
2021/09/30 08:05:14;;;;;;;10.90;2.10;;;;;13.20;102190.00;;;;10437233;28;20240;-81
2021/09/30 08:10:16;;;;;;;6.90;2.13;;;;;13.60;102187.00;;;;10468530;28;20206;-81
2021/09/30 08:15:18;;;;;;;7.40;2.33;;;;;14.10;102187.00;;;;10483945;28;20190;-80
2021/09/30 08:20:20;;;;;;;5.97;2.00;;;;;14.50;102187.00;;;;10418294;28;20195;-81
2021/09/30 08:25:23;;;;;;;5.53;2.33;;;;;14.70;102191.00;;;;10409934;28;20264;-80
2021/09/30 08:30:25;;;;;;;5.10;1.93;;;;;14.90;102184.00;;;;10465017;28;20237;-80
2021/09/30 08:35:27;;;;;;;5.33;2.23;;;;;15.00;102181.00;;;;10374094;28;20301;-80
2021/09/30 08:40:30;;;;;;;6.93;2.37;;;;;14.90;102177.00;;;;10410105;28;20217;-81
2021/09/30 08:45:32;;;;;;;12.37;2.30;;;;;14.90;102177.00;;;;10393879;28;20201;-80
2021/09/30 08:50:40;;;;;;;7.83;2.23;;;;;15.00;102169.00;;;;10425258;28;20214;-80
2021/09/30 08:55:43;;;;;;;9.43;2.70;;;;;15.20;102169.00;;;;10408735;28;20222;-81
2021/09/30 09:00:45;;;;;;;9.87;2.70;;;;;15.60;102161.00;;;;10392531;28;20191;-81
2021/09/30 09:05:47;;;;;;;10.17;2.53;;;;;15.90;102166.00;;;;10408895;28;20201;-80
2021/09/30 09:10:51;;;;;;;9.90;2.20;;;;;16.20;102158.00;;;;10423893;28;20218;-81
2021/09/30 09:15:59;;;;;;;10.70;2.13;;;;;16.50;102153.00;;;;10440857;28;20195;-80
2021/09/30 09:21:20;;;;;;;7.33;2.17;;;;;16.80;102150.00;;;;10359150;28;20612;-80
2021/09/30 09:26:32;;;;;;;8.23;2.05;;;;;17.10;102148.00;;;;10422999;28;20196;-81
2021/09/30 09:31:38;;;;;;;6.10;2.03;;;;;17.20;102137.00;;;;10415507;28;20731;-81
2021/09/30 09:36:40;;;;;;;5.55;1.80;;;;;17.20;102133.00;;;;10449000;28;20195;-80
2021/09/30 09:41:42;;;;;;;3.85;2.03;;;;;17.30;102131.00;;;;10411015;28;20811;-81
2021/09/30 09:46:44;;;;;;;4.60;1.65;;;;;17.20;102126.00;;;;10461704;28;20225;-80
2021/09/30 09:51:50;;;;;;;15.00;2.47;;;;;17.20;102121.00;;;;10479574;28;20220;-80
2021/09/30 09:56:52;;;;;;;4.97;2.00;;;;;17.40;102113.00;;;;10429129;28;20285;-80
2021/09/30 10:01:54;;;;;;;6.72;2.88;;;;;17.40;102109.00;;;;10462222;28;20244;-80
2021/09/30 10:06:57;;;;;;;6.32;2.85;;;;;17.30;102111.00;;;;10453775;28;20566;-80
2021/09/30 10:11:59;;;;;;;5.93;3.20;;;;;17.10;102107.00;;;;10437396;28;20227;-79
2021/09/30 10:17:02;;;;;;;5.38;2.40;;;;;17.00;102109.00;;;;10420294;28;20294;-80
2021/09/30 10:22:04;;;;;;;10.90;2.90;;;;;17.20;102099.00;;;;10420007;28;20286;-80
2021/09/30 10:27:06;;;;;;;4.28;2.30;;;;;17.30;102105.00;;;;10429579;28;20259;-80
2021/09/30 10:32:09;;;;;;;3.92;1.73;;;;;17.30;102095.00;;;;10463429;28;20210;-80
2021/09/30 10:37:19;;;;;;;6.38;1.75;;;;;17.20;102088.00;;;;10461750;28;20178;-80
2021/09/30 10:42:39;;;;;;;7.82;2.78;;;;;17.20;102093.00;;;;10428159;28;20214;-81
2021/09/30 10:47:42;;;;;;;9.70;2.45;;;;;17.30;102088.00;;;;10427302;28;20205;-81
2021/09/30 10:52:53;;;;;;;7.82;1.85;;;;;17.40;102086.00;;;;10412181;28;20217;-80
2021/09/30 10:57:57;;;;;;;4.30;2.13;;;;;17.50;102079.00;;;;10471497;28;20209;-80
2021/09/30 11:03:02;;;;;;;8.52;1.67;;;;;17.40;102072.00;;;;10402556;28;20288;-80
2021/09/30 11:08:20;;;;;;;5.63;1.90;;;;;17.40;102076.00;;;;10383322;28;20730;-80
2021/09/30 11:13:23;;;;;;;9.75;2.78;;;;;17.30;102071.00;;;;10400854;28;20217;-80
2021/09/30 11:18:53;;;;;;;6.75;1.70;;;;;17.00;102066.00;;;;10409568;28;20302;-81
2021/09/30 11:24:00;;;;;;;6.70;1.70;;;;;16.60;102060.00;;;;10392768;28;20187;-80
2021/09/30 11:34:25;;;;;;;7.38;2.20;;;;;16.50;102051.00;;;;10382282;28;20244;-81
2021/09/30 11:39:34;;;;;;;5.15;1.88;;;;;16.50;102055.00;;;;10446173;28;20677;-81
2021/09/30 11:44:36;;;;;;;7.97;2.22;;;;;16.50;102053.00;;;;10380051;28;20205;-81
2021/09/30 11:49:42;;;;;;;6.38;2.17;;;;;16.90;102040.00;;;;10408742;28;20898;-81
2021/09/30 11:54:43;;;;;;;11.65;2.10;;;;;17.50;102038.00;;;;10434105;28;20195;-81
2021/09/30 11:59:45;;;;;;;6.22;1.98;;;;;18.10;102029.00;;;;10433527;28;20248;-80
2021/09/30 12:04:49;;;;;;;4.45;1.70;;;;;18.40;102024.00;;;;10446679;28;20202;-81
2021/09/30 12:09:57;;;;;;;5.13;1.73;;;;;18.30;102026.00;;;;10460319;28;20215;-81
2021/09/30 12:14:59;;;;;;;8.80;2.70;;;;;18.20;102021.00;;;;10459965;28;20209;-81
2021/09/30 12:20:06;;;;;;;7.50;1.92;;;;;17.80;102021.00;;;;10425866;28;20187;-80
2021/09/30 12:25:30;;;;;;;6.28;2.03;;;;;17.40;102011.00;;;;10409654;28;20187;-81
2021/09/30 12:30:32;;;;;;;6.82;2.28;;;;;17.00;102002.00;;;;10408958;28;20226;-81
2021/09/30 12:35:37;;;;;;;6.78;2.30;;;;;17.00;102002.00;;;;10487166;28;20239;-81
2021/09/30 12:40:45;;;;;;;8.05;2.55;;;;;17.20;101991.00;;;;10508111;28;20221;-81
2021/09/30 12:45:56;;;;;;;9.93;2.85;;;;;17.30;101990.00;;;;10441573;28;20195;-81
2021/09/30 12:51:07;;;;;;;6.22;2.53;;;;;17.20;101992.00;;;;10400740;28;20220;-80
2021/09/30 12:56:11;;;;;;;9.40;3.00;;;;;17.10;101977.00;;;;10384751;28;20234;-81
2021/09/30 13:01:35;;;;;;;5.55;2.67;;;;;17.20;101969.00;;;;10383259;28;20219;-80
2021/09/30 13:06:56;;;;;;;10.75;2.80;;;;;17.20;101961.00;;;;10383032;28;20195;-80
2021/09/30 13:12:03;;;;;;;10.65;2.58;;;;;17.40;101955.00;;;;10382982;28;20219;-81
2021/09/30 13:17:08;;;;;;;9.02;2.90;;;;;18.10;101949.00;;;;10399167;28;20196;-80
2021/09/30 13:22:12;;;;;;;10.00;2.92;;;;;19.00;101948.00;;;;10364994;28;20253;-80
2021/09/30 13:27:16;;;;;;;6.28;2.90;;;;;19.40;101923.00;;;;10366059;28;20246;-81
2021/09/30 13:32:19;;;;;;;5.90;2.25;;;;;19.30;101924.00;;;;10397770;28;20679;-80
2021/09/30 13:37:22;;;;;;;6.22;2.55;;;;;18.80;101931.00;;;;10381856;28;20200;-80
2021/09/30 13:42:26;;;;;;;6.80;2.40;;;;;18.20;101916.00;;;;10375870;28;20274;-81
2021/09/30 13:47:28;;;;;;;4.60;1.80;;;;;18.40;101907.00;;;;10397276;28;20203;-81
2021/09/30 13:52:30;;;;;;;9.63;1.90;;;;;18.60;101890.00;;;;10454644;28;20249;-80
2021/09/30 13:57:34;;;;;;;7.03;1.73;;;;;18.50;101894.00;;;;10445711;28;20206;-80
2021/09/30 14:02:38;;;;;;;4.80;1.42;;;;;18.40;101880.00;;;;10415867;28;20205;-81
2021/09/30 14:07:41;;;;;;;5.60;1.40;;;;;18.30;101883.00;;;;10458468;28;20216;-81
2021/09/30 14:12:44;;;;;;;5.70;1.67;;;;;18.10;101865.00;;;;10444252;28;20245;-79
2021/09/30 14:17:46;;;;;;;4.93;1.50;;;;;17.90;101863.00;;;;10395578;28;20293;-80
2021/09/30 14:22:48;;;;;;;4.25;1.30;;;;;17.70;101855.00;;;;10444272;28;20190;-80
2021/09/30 14:27:50;;;;;;;4.55;1.42;;;;;17.40;101852.00;;;;10461959;28;20198;-80
2021/09/30 14:32:53;;;;;;;4.10;1.27;;;;;17.30;101865.00;;;;10428296;28;20218;-80
2021/09/30 14:37:54;;;;;;;4.93;1.35;;;;;16.90;101865.00;;;;10444605;28;20187;-79
2021/09/30 14:42:56;;;;;;;7.22;1.33;;;;;16.70;101856.00;;;;10427359;28;20325;-78
2021/09/30 14:47:58;;;;;;;5.15;1.45;;;;;16.70;101854.00;;;;10425808;28;20194;-79
2021/09/30 14:53:00;;;;;;;3.30;1.15;;;;;16.60;101847.00;;;;10428725;28;20217;-79
2021/09/30 14:58:04;;;;;;;4.18;1.40;;;;;16.30;101842.00;;;;10430654;28;20730;-79
2021/09/30 15:03:06;;;;;;;4.10;1.25;;;;;16.10;101845.00;;;;10435470;28;20197;-79
2021/09/30 15:08:08;;;;;;;4.47;1.25;;;;;15.90;101827.00;;;;10461255;28;20717;-78
2021/09/30 15:13:10;;;;;;;4.30;1.10;;;;;15.80;101814.00;;;;10475791;28;20711;-78
2021/09/30 15:18:26;;;;;;;5.23;1.27;;;;;15.70;101820.00;;;;10429855;28;20229;-78
2021/09/30 15:23:28;;;;;;;5.40;1.90;;;;;15.80;101813.00;;;;10469998;28;20189;-78
2021/09/30 15:28:31;;;;;;;3.63;1.42;;;;;15.70;101802.00;;;;10427279;28;20198;-78
2021/09/30 15:33:33;;;;;;;2.80;1.00;;;;;15.70;101796.00;;;;10418136;28;20210;-78
2021/09/30 15:38:37;;;;;;;4.87;1.03;;;;;15.70;101789.00;;;;10430879;28;20303;-77
2021/09/30 15:43:39;;;;;;;8.57;1.70;;;;;15.70;101784.00;;;;10442843;28;20220;-77
2021/09/30 15:48:42;;;;;;;4.40;1.30;;;;;15.70;101782.00;;;;10459257;28;20214;-77
2021/09/30 15:53:45;;;;;;;5.27;1.47;;;;;15.60;101778.00;;;;10499457;28;20221;-77
2021/09/30 15:58:47;;;;;;;5.07;1.40;;;;;15.60;101775.00;;;;10473222;28;20186;-77
2021/09/30 16:03:49;;;;;;;10.07;1.70;;;;;15.50;101774.00;;;;10484798;28;20217;-77
2021/09/30 16:08:51;;;;;;;2.53;1.40;;;;;15.40;101764.00;;;;10475749;28;20213;-77
2021/09/30 16:13:53;;;;;;;10.87;1.50;;;;;15.30;101770.00;;;;10440819;28;20249;-78
2021/09/30 16:18:55;;;;;;;5.50;1.30;;;;;15.20;101763.00;;;;10464021;28;20251;-77
2021/09/30 16:23:57;;;;;;;6.03;1.17;;;;;15.20;101754.00;;;;10452157;28;20191;-77
2021/09/30 16:28:59;;;;;;;4.40;1.30;;;;;15.10;101753.00;;;;10470525;28;20223;-77
2021/09/30 16:34:02;;;;;;;5.43;1.63;;;;;15.00;101753.00;;;;10443164;28;20222;-77
2021/09/30 16:39:04;;;;;;;3.40;1.20;;;;;14.80;101749.00;;;;10439497;28;20202;-78
2021/09/30 16:44:06;;;;;;;4.60;1.20;;;;;14.70;101746.00;;;;10464533;28;20198;-78
2021/09/30 16:49:07;;;;;;;7.67;1.30;;;;;14.60;101739.00;;;;10500398;28;20221;-77
2021/09/30 16:54:09;;;;;;;4.13;1.73;;;;;14.60;101739.00;;;;10420371;28;20272;-78
2021/09/30 16:59:12;;;;;;;4.93;1.43;;;;;14.50;101739.00;;;;10445494;28;20199;-78
2021/09/30 17:04:17;;;;;;;4.63;1.27;;;;;14.30;101740.00;;;;10448479;28;20236;-78
2021/09/30 17:09:19;;;;;;;8.00;1.57;;;;;14.10;101741.00;;;;10457294;28;20248;-78
2021/09/30 17:14:21;;;;;;;5.63;1.43;;;;;14.00;101749.00;;;;10440862;28;20229;-78
2021/09/30 17:19:23;;;;;;;6.20;1.40;;;;;13.80;101740.00;;;;10444608;28;20264;-78
2021/09/30 17:24:25;;;;;;;7.17;1.47;;;;;13.80;101735.00;;;;10372056;28;20210;-77
2021/09/30 17:29:29;;;;;;;6.00;2.00;;;;;13.80;101726.00;;;;10399301;28;20195;-78
2021/09/30 17:34:30;;;;;;;6.50;1.60;;;;;13.70;101727.00;;;;10399477;28;20713;-78
2021/09/30 17:39:33;;;;;;;8.80;2.63;;;;;13.60;101720.00;;;;10398927;28;20902;-77
2021/09/30 17:44:36;;;;;;;5.23;1.33;;;;;13.60;101730.00;;;;10334877;28;20197;-77
2021/09/30 17:49:39;;;;;;;6.60;2.10;;;;;13.60;101733.00;;;;10382157;28;20210;-77
2021/09/30 17:54:41;;;;;;;6.13;1.73;;;;;13.60;101729.00;;;;10450406;28;20274;-77
2021/09/30 17:59:43;;;;;;;4.63;1.50;;;;;13.50;101733.00;;;;10459297;28;20221;-77
2021/09/30 18:04:45;;;;;;;7.63;1.67;;;;;13.30;101729.00;;;;10496696;28;20214;-78
2021/09/30 18:09:47;;;;;;;5.80;1.43;;;;;13.20;101721.00;;;;10454773;28;20191;-77
2021/09/30 18:14:50;;;;;;;4.43;1.60;;;;;13.20;101715.00;;;;10465668;28;20194;-77
2021/09/30 18:19:52;;;;;;;4.03;1.57;;;;;13.20;101717.00;;;;10442041;28;20229;-77
2021/09/30 18:29:57;;;;;;;5.30;2.30;;;;;13.10;101725.00;;;;10429524;28;20191;-78
2021/09/30 18:34:59;;;;;;;4.33;1.73;;;;;13.00;101717.00;;;;10419401;28;20199;-77
2021/09/30 18:40:02;;;;;;;5.13;1.63;;;;;13.00;101713.00;;;;10491160;28;20221;-78
2021/09/30 18:45:05;;;;;;;5.77;1.60;;;;;13.00;101710.00;;;;10423586;28;20194;-77
2021/09/30 18:50:07;;;;;;;7.77;2.07;;;;;13.00;101715.00;;;;10420579;28;20202;-77
2021/09/30 18:55:09;;;;;;;5.83;1.77;;;;;13.00;101704.00;;;;10425845;28;20232;-77
2021/09/30 19:00:13;;;;;;;6.03;2.00;;;;;13.00;101710.00;;;;10455726;28;20197;-77
2021/09/30 19:05:15;;;;;;;6.27;1.90;;;;;12.90;101705.00;;;;10482289;28;20239;-77
2021/09/30 19:10:17;;;;;;;7.67;1.70;;;;;12.80;101700.00;;;;10461206;28;20214;-77
2021/09/30 19:15:20;;;;;;;6.30;1.40;;;;;12.60;101693.00;;;;10418809;28;20256;-78
2021/09/30 19:20:23;;;;;;;3.93;1.63;;;;;12.60;101698.00;;;;10446355;28;20665;-78
2021/09/30 19:25:27;;;;;;;4.97;1.77;;;;;12.70;101687.00;;;;10483539;28;20202;-78
2021/09/30 19:30:31;;;;;;;5.10;1.60;;;;;12.60;101683.00;;;;10488818;28;20205;-77
2021/09/30 19:35:34;;;;;;;9.20;1.80;;;;;12.50;101685.00;;;;10472781;28;20255;-77
2021/09/30 19:40:36;;;;;;;4.40;2.07;;;;;12.40;101680.00;;;;10427633;28;20252;-78
2021/09/30 19:45:41;;;;;;;2.13;1.57;;;;;12.30;101676.00;;;;10464809;28;20197;-77
2021/09/30 19:50:43;;;;;;;4.50;1.53;;;;;12.10;101670.00;;;;10431649;28;20222;-77
2021/09/30 19:55:45;;;;;;;4.97;1.83;;;;;12.00;101666.00;;;;10414500;28;20264;-78
2021/09/30 20:00:48;;;;;;;12.03;2.93;;;;;11.90;101663.00;;;;10448335;28;20538;-77
2021/09/30 20:05:50;;;;;;;4.77;1.63;;;;;11.90;101660.00;;;;10447605;28;20272;-77
2021/09/30 20:10:52;;;;;;;5.97;1.80;;;;;11.90;101663.00;;;;10451248;28;20229;-78
2021/09/30 20:15:54;;;;;;;3.80;1.87;;;;;11.80;101652.00;;;;10446213;28;20607;-78
2021/09/30 20:20:57;;;;;;;3.60;1.50;;;;;11.80;101637.00;;;;10428841;28;20285;-77
2021/09/30 20:25:59;;;;;;;8.47;1.70;;;;;11.70;101640.00;;;;10445420;28;20198;-77
2021/09/30 20:31:03;;;;;;;4.13;1.60;;;;;11.70;101644.00;;;;10482172;28;20684;-77
2021/09/30 20:36:06;;;;;;;6.63;2.07;;;;;11.70;101643.00;;;;10487345;28;20185;-77
2021/09/30 20:41:08;;;;;;;3.70;1.63;;;;;11.60;101639.00;;;;10464972;28;20214;-77
2021/09/30 20:46:10;;;;;;;4.70;2.07;;;;;11.60;101630.00;;;;10403322;28;20662;-77
2021/09/30 20:51:14;;;;;;;7.90;2.10;;;;;11.60;101621.00;;;;10439693;28;20275;-77
2021/09/30 20:56:16;;;;;;;6.63;1.57;;;;;11.60;101628.00;;;;10427719;28;20206;-76
2021/09/30 21:01:19;;;;;;;4.97;1.37;;;;;11.70;101626.00;;;;10466807;28;20186;-77
2021/09/30 21:06:21;;;;;;;3.87;1.63;;;;;11.70;101626.00;;;;10501440;28;20193;-77
2021/09/30 21:11:23;;;;;;;2.20;1.63;;;;;11.60;101618.00;;;;10498520;28;20268;-76
2021/09/30 21:16:25;;;;;;;3.10;1.60;;;;;11.50;101605.00;;;;10396872;28;20202;-78
2021/09/30 21:21:27;;;;;;;6.93;2.00;;;;;11.50;101592.00;;;;10402324;28;20180;-77
2021/09/30 21:26:29;;;;;;;6.43;2.00;;;;;11.50;101590.00;;;;10487770;28;20190;-77
2021/09/30 21:31:35;;;;;;;6.10;1.53;;;;;11.40;101583.00;;;;10424693;28;20222;-77
2021/09/30 21:36:37;;;;;;;5.57;1.70;;;;;11.40;101581.00;;;;10442764;28;20218;-77
2021/09/30 21:41:39;;;;;;;4.20;1.60;;;;;11.40;101573.00;;;;10426789;28;20229;-77
2021/09/30 21:46:42;;;;;;;4.23;1.30;;;;;11.40;101565.00;;;;10426718;28;20197;-77
2021/09/30 21:51:44;;;;;;;1.90;1.50;;;;;11.30;101554.00;;;;10445623;28;20738;-77
2021/09/30 21:56:46;;;;;;;2.27;1.30;;;;;11.30;101549.00;;;;10442134;28;20264;-77
2021/09/30 22:01:48;;;;;;;6.40;1.43;;;;;11.30;101542.00;;;;10434512;28;20206;-77
2021/09/30 22:06:51;;;;;;;3.03;1.40;;;;;11.40;101538.00;;;;10427172;28;20220;-77
2021/09/30 22:11:57;;;;;;;6.00;1.70;;;;;11.40;101536.00;;;;10444062;28;20222;-77
2021/09/30 22:17:03;;;;;;;3.73;1.03;;;;;11.30;101518.00;;;;10407533;28;20190;-77
2021/09/30 22:22:04;;;;;;;6.17;1.30;;;;;11.30;101520.00;;;;10410669;28;20209;-77
2021/09/30 22:27:06;;;;;;;3.30;1.27;;;;;11.30;101522.00;;;;10424691;28;20198;-77
2021/09/30 22:32:08;;;;;;;3.13;1.27;;;;;11.30;101512.00;;;;10440937;28;20220;-77
2021/09/30 22:37:13;;;;;;;3.80;1.10;;;;;11.30;101509.00;;;;10442573;28;20201;-77
2021/09/30 22:42:15;;;;;;;5.40;1.40;;;;;11.40;101512.00;;;;10433632;28;20275;-77
2021/09/30 22:47:17;;;;;;;2.03;1.13;;;;;11.40;101508.00;;;;10425309;28;20187;-77
2021/09/30 22:52:19;;;;;;;3.70;1.23;;;;;11.40;101515.00;;;;10424576;28;20218;-77
2021/09/30 22:57:21;;;;;;;2.77;1.23;;;;;11.30;101495.00;;;;10475180;28;20202;-77
2021/09/30 23:02:23;;;;;;;5.00;1.20;;;;;11.30;101504.00;;;;10458539;28;20201;-77
2021/09/30 23:07:25;;;;;;;2.90;1.00;;;;;11.30;101497.00;;;;10457687;28;20642;-77
2021/09/30 23:12:27;;;;;;;4.13;1.20;;;;;11.30;101496.00;;;;10425380;28;20213;-77
2021/09/30 23:17:29;;;;;;;2.10;1.13;;;;;11.40;101490.00;;;;10441379;28;20190;-77
2021/09/30 23:22:32;;;;;;;3.30;1.70;;;;;11.40;101489.00;;;;10408903;28;20183;-77
2021/09/30 23:27:33;;;;;;;7.30;1.37;;;;;11.30;101477.00;;;;10449608;28;20210;-77
2021/09/30 23:32:36;;;;;;;3.80;1.33;;;;;11.30;101479.00;;;;10482458;28;20221;-77
2021/09/30 23:37:38;;;;;;;2.90;0.90;;;;;11.20;101480.00;;;;10466288;28;20194;-77
2021/09/30 23:42:40;;;;;;;2.47;1.10;;;;;11.20;101478.00;;;;10471188;28;20301;-77
2021/09/30 23:47:41;;;;;;;4.07;1.30;;;;;11.20;101472.00;;;;10400201;28;20654;-77
2021/09/30 23:52:43;;;;;;;3.70;1.20;;;;;11.10;101461.00;;;;10416851;28;20233;-77
2021/09/30 23:57:45;;;;;;;1.97;1.10;;;;;11.20;101447.00;;;;10415307;28;20261;-77
